Time;durP1;ratioP1;P1;durP2;ratioP2;P2;SDS_P1;SDS_P2;PMS_P1;PMS_P2;Temp;Humidity;BMP_temperature;BMP_pressure;BME280_temperature;BME280_humidity;BME280_pressure;Samples;Min_cycle;Max_cycle;Signal;HPM_P1;HPM_P2
2022/09/10 00:01:59;;;;;;;;;;;;;;;22.12;70.90;100882.63;5116312;27;20051;-80
2022/09/10 00:04:24;;;;;;;;;;;;;;;22.18;70.60;100875.41;5134954;27;19954;-80
2022/09/10 00:06:49;;;;;;;;;;;;;;;22.11;70.80;100879.06;5135000;27;19915;-81
2022/09/10 00:09:15;;;;;;;;;;;;;;;21.99;71.54;100889.13;5134644;27;20004;-80
2022/09/10 00:11:40;;;;;;;;;;;;;;;22.02;71.47;100885.91;5134201;27;19911;-80
2022/09/10 00:14:06;;;;;;;;;;;;;;;22.06;71.03;100883.56;5134270;27;19954;-80
2022/09/10 00:16:32;;;;;;;;;;;;;;;22.06;71.34;100873.44;5134273;27;19916;-80
2022/09/10 00:18:57;;;;;;;;;;;;;;;22.03;71.30;100871.19;5115781;27;19956;-80
2022/09/10 00:21:22;;;;;;;;;;;;;;;21.98;72.03;100873.75;5134274;27;19912;-80
2022/09/10 00:23:48;;;;;;;;;;;;;;;21.99;71.85;100874.63;5115927;27;19915;-80
2022/09/10 00:26:21;;;;;;;;;;;;;;;22.03;71.88;100884.88;5136326;27;20382;-81
2022/09/10 00:28:46;;;;;;;;;;;;;;;22.05;72.02;100882.72;5120385;27;20138;-80
2022/09/10 00:31:12;;;;;;;;;;;;;;;22.01;72.27;100884.25;5138592;27;19963;-80
2022/09/10 00:33:37;;;;;;;;;;;;;;;22.05;72.15;100888.19;5119688;27;20302;-80
2022/09/10 00:36:04;;;;;;;;;;;;;;;22.05;72.58;100890.91;5135116;27;20004;-81
2022/09/10 00:38:30;;;;;;;;;;;;;;;22.06;72.71;100892.59;5134254;27;19919;-80
2022/09/10 00:41:07;;;;;;;;;;;;;;;22.07;72.57;100883.31;5134193;27;19918;-81
2022/09/10 00:43:45;;;;;;;;;;;;;;;22.06;72.64;100886.31;5133079;27;20006;-81
2022/09/10 00:46:10;;;;;;;;;;;;;;;22.07;72.40;100883.31;5133694;27;19911;-81
2022/09/10 00:48:36;;;;;;;;;;;;;;;22.12;71.94;100880.75;5134147;27;20442;-81
2022/09/10 00:51:02;;;;;;;;;;;;;;;22.06;71.96;100867.16;5115242;27;20029;-80
2022/09/10 00:53:28;;;;;;;;;;;;;;;22.09;71.69;100872.97;5115574;27;19911;-80
2022/09/10 00:55:54;;;;;;;;;;;;;;;22.05;71.92;100866.28;5133419;27;19964;-81
2022/09/10 00:58:19;;;;;;;;;;;;;;;22.09;71.82;100872.97;5114656;27;19972;-81
2022/09/10 01:00:45;;;;;;;;;;;;;;;22.15;71.53;100871.22;5114900;27;19915;-80
2022/09/10 01:03:10;;;;;;;;;;;;;;;22.08;71.62;100860.38;5133465;27;19960;-80
2022/09/10 01:05:37;;;;;;;;;;;;;;;22.03;71.84;100867.59;5132896;27;19976;-81
2022/09/10 01:08:02;;;;;;;;;;;;;;;22.06;71.25;100857.03;5114940;27;20385;-81
2022/09/10 01:10:31;;;;;;;;;;;;;;;22.01;71.81;100851.41;5133070;27;19967;-81
2022/09/10 01:13:15;;;;;;;;;;;;;;;22.04;71.78;100850.94;5114689;27;19916;-80
2022/09/10 01:15:43;;;;;;;;;;;;;;;22.03;71.74;100841.06;5133000;27;20556;-81
2022/09/10 01:18:29;;;;;;;;;;;;;;;22.13;71.40;100837.75;5133093;27;20015;-80
2022/09/10 01:20:57;;;;;;;;;;;;;;;22.05;71.56;100833.44;5133072;27;19907;-81
2022/09/10 01:23:25;;;;;;;;;;;;;;;22.03;71.68;100845.69;5133375;27;19935;-80
2022/09/10 01:26:05;;;;;;;;;;;;;;;21.99;72.14;100845.34;5133231;27;19907;-80
2022/09/10 01:29:09;;;;;;;;;;;;;;;22.04;71.85;100842.72;5114444;27;19984;-80
2022/09/10 01:31:48;;;;;;;;;;;;;;;22.08;71.60;100838.47;5029406;28;20016;-80
2022/09/10 01:34:21;;;;;;;;;;;;;;;22.07;71.94;100847.72;4996522;28;20360;-80
2022/09/10 01:36:50;;;;;;;;;;;;;;;21.99;72.13;100845.34;5074336;27;19918;-80
2022/09/10 01:39:16;;;;;;;;;;;;;;;22.07;72.25;100836.78;5115000;27;20301;-80
2022/09/10 01:41:41;;;;;;;;;;;;;;;21.99;72.49;100839.03;5114867;27;19960;-80
2022/09/10 01:44:09;;;;;;;;;;;;;;;21.93;72.56;100824.34;5132539;27;20379;-80
2022/09/10 01:46:34;;;;;;;;;;;;;;;21.88;72.91;100826.94;5132606;27;19915;-80
2022/09/10 01:49:04;;;;;;;;;;;;;;;21.95;72.63;100826.88;5132648;27;19925;-80
2022/09/10 01:51:42;;;;;;;;;;;;;;;21.91;73.05;100826.47;5114201;27;20023;-80
2022/09/10 01:54:10;;;;;;;;;;;;;;;21.92;73.18;100819.97;5132567;27;19915;-80
2022/09/10 01:56:35;;;;;;;;;;;;;;;21.94;73.04;100820.56;5132432;27;19915;-80
2022/09/10 01:59:03;;;;;;;;;;;;;;;21.91;73.17;100821.00;5132216;27;20005;-80
2022/09/10 02:01:31;;;;;;;;;;;;;;;21.99;72.80;100822.59;5114128;27;19919;-80
2022/09/10 02:03:58;;;;;;;;;;;;;;;22.00;73.00;100814.13;5132815;27;19971;-80
2022/09/10 02:06:26;;;;;;;;;;;;;;;21.98;73.18;100816.28;5132795;27;20015;-80
2022/09/10 02:08:52;;;;;;;;;;;;;;;21.97;73.46;100814.63;5114276;27;19934;-80
2022/09/10 02:11:17;;;;;;;;;;;;;;;22.02;73.32;100814.75;5132100;27;20328;-80
2022/09/10 02:13:42;;;;;;;;;;;;;;;22.06;72.82;100810.47;5132274;27;20401;-80
2022/09/10 02:16:08;;;;;;;;;;;;;;;22.00;73.20;100805.94;5132007;27;19916;-81
2022/09/10 02:18:34;;;;;;;;;;;;;;;21.97;73.09;100808.31;5113529;27;20294;-80
2022/09/10 02:21:01;;;;;;;;;;;;;;;21.93;72.96;100800.53;5113978;27;20396;-81
2022/09/10 02:23:43;;;;;;;;;;;;;;;21.91;73.16;100799.09;5113917;27;19961;-80
2022/09/10 02:26:08;;;;;;;;;;;;;;;21.91;73.28;100810.06;5131885;27;19911;-80
2022/09/10 02:28:34;;;;;;;;;;;;;;;21.94;73.48;100804.13;5132240;27;19912;-80
2022/09/10 02:31:00;;;;;;;;;;;;;;;21.86;73.87;100798.97;5114043;28;19934;-80
2022/09/10 02:33:25;;;;;;;;;;;;;;;21.88;73.77;100805.88;5132109;28;19911;-79
2022/09/10 02:35:52;;;;;;;;;;;;;;;21.88;73.65;100805.88;5131744;28;19911;-79
2022/09/10 02:38:17;;;;;;;;;;;;;;;21.89;73.39;100807.56;5131852;28;19959;-80
2022/09/10 02:40:43;;;;;;;;;;;;;;;21.85;73.42;100794.59;5131995;28;19916;-81
2022/09/10 02:43:08;;;;;;;;;;;;;;;21.86;73.45;100796.25;5131683;28;20594;-80
2022/09/10 02:45:35;;;;;;;;;;;;;;;21.84;73.96;100801.09;5132157;28;20394;-80
2022/09/10 02:48:02;;;;;;;;;;;;;;;21.77;74.11;100797.63;5140966;28;19911;-79
2022/09/10 02:50:27;;;;;;;;;;;;;;;21.80;73.98;100795.28;5150133;28;19911;-80
2022/09/10 02:52:53;;;;;;;;;;;;;;;21.80;74.06;100798.03;5142159;28;19911;-80
2022/09/10 02:55:18;;;;;;;;;;;;;;;21.77;74.05;100797.63;5113647;28;19919;-80
2022/09/10 02:57:44;;;;;;;;;;;;;;;21.79;74.10;100803.72;5133904;28;19912;-81
2022/09/10 03:00:09;;;;;;;;;;;;;;;21.77;74.14;100803.09;5133559;28;19919;-81
2022/09/10 03:02:35;;;;;;;;;;;;;;;21.84;74.05;100798.38;5131850;28;19927;-81
2022/09/10 03:05:03;;;;;;;;;;;;;;;21.78;74.20;100799.31;5131680;28;19911;-81
2022/09/10 03:07:28;;;;;;;;;;;;;;;21.79;74.03;100795.50;5134395;27;19976;-81
2022/09/10 03:09:54;;;;;;;;;;;;;;;21.79;73.63;100787.28;5135447;27;20447;-81
2022/09/10 03:12:20;;;;;;;;;;;;;;;21.68;73.90;100789.75;5135555;27;19917;-81
2022/09/10 03:14:46;;;;;;;;;;;;;;;21.74;73.86;100784.44;5135516;27;19912;-81
2022/09/10 03:17:11;;;;;;;;;;;;;;;21.69;74.19;100788.69;5135371;27;20285;-79
2022/09/10 03:19:38;;;;;;;;;;;;;;;21.59;73.79;100780.19;5116843;27;20027;-81
2022/09/10 03:22:04;;;;;;;;;;;;;;;21.68;73.44;100778.81;5135160;27;19911;-81
2022/09/10 03:24:29;;;;;;;;;;;;;;;21.66;73.49;100786.41;5135207;27;19934;-80
2022/09/10 03:26:55;;;;;;;;;;;;;;;21.80;73.21;100786.25;5116684;27;19968;-80
2022/09/10 03:29:22;;;;;;;;;;;;;;;21.71;73.35;100792.03;5135132;27;20352;-80
2022/09/10 03:31:47;;;;;;;;;;;;;;;21.80;73.12;100799.94;5135410;27;20316;-80
2022/09/10 03:34:13;;;;;;;;;;;;;;;21.73;73.15;100790.94;5135373;27;19911;-80
2022/09/10 03:36:38;;;;;;;;;;;;;;;21.74;73.47;100800.84;5135356;27;20006;-80
2022/09/10 03:39:03;;;;;;;;;;;;;;;21.65;73.59;100795.69;5135921;27;20348;-81
2022/09/10 03:41:29;;;;;;;;;;;;;;;21.66;73.52;100793.78;5135276;27;19923;-81
2022/09/10 03:43:56;;;;;;;;;;;;;;;21.67;73.67;100804.50;5137861;27;19915;-80
2022/09/10 03:46:21;;;;;;;;;;;;;;;21.77;73.78;100803.09;5135875;27;19911;-81
2022/09/10 03:48:46;;;;;;;;;;;;;;;21.84;73.66;100803.84;5135373;27;19931;-81
2022/09/10 03:51:12;;;;;;;;;;;;;;;21.81;73.39;100809.78;5135013;27;19918;-81
2022/09/10 03:53:37;;;;;;;;;;;;;;;21.93;72.77;100813.41;5135274;27;19922;-81
2022/09/10 03:56:03;;;;;;;;;;;;;;;21.89;72.90;100795.78;5116416;27;19911;-81
2022/09/10 03:58:28;;;;;;;;;;;;;;;21.94;72.82;100809.63;5134941;27;20271;-80
2022/09/10 04:00:53;;;;;;;;;;;;;;;22.10;72.37;100803.47;5135364;27;19911;-81
2022/09/10 04:03:21;;;;;;;;;;;;;;;22.12;71.79;100812.28;5134903;27;20009;-81
2022/09/10 04:05:46;;;;;;;;;;;;;;;22.18;71.78;100809.69;5135017;27;19954;-81
2022/09/10 04:08:12;;;;;;;;;;;;;;;22.10;72.13;100813.56;5116091;27;20358;-81
2022/09/10 04:10:38;;;;;;;;;;;;;;;22.23;71.82;100813.41;5134688;27;19916;-81
2022/09/10 04:13:03;;;;;;;;;;;;;;;22.30;71.83;100813.31;5116292;27;19918;-81
2022/09/10 04:15:28;;;;;;;;;;;;;;;22.20;72.07;100810.28;5134510;27;20358;-80
2022/09/10 04:17:54;;;;;;;;;;;;;;;22.39;71.32;100802.84;5133025;27;20450;-81
2022/09/10 04:20:22;;;;;;;;;;;;;;;22.33;71.45;100808.19;5116136;27;19918;-81
2022/09/10 04:22:48;;;;;;;;;;;;;;;22.46;70.98;100800.84;5134288;27;19911;-81
2022/09/10 04:25:13;;;;;;;;;;;;;;;22.55;70.73;100811.22;5134261;27;19975;-81
2022/09/10 04:27:38;;;;;;;;;;;;;;;22.56;70.00;100817.50;5134623;27;19916;-81
2022/09/10 04:30:04;;;;;;;;;;;;;;;22.55;69.72;100819.44;5133798;27;19912;-81
2022/09/10 04:32:29;;;;;;;;;;;;;;;22.57;69.65;100816.47;5115743;27;19972;-80
2022/09/10 04:34:54;;;;;;;;;;;;;;;22.47;69.92;100824.41;5134145;27;19991;-80
2022/09/10 04:37:20;;;;;;;;;;;;;;;22.56;69.41;100817.50;5133914;27;19917;-80
2022/09/10 04:39:46;;;;;;;;;;;;;;;22.59;69.69;100813.47;5133717;27;19950;-81
2022/09/10 04:42:13;;;;;;;;;;;;;;;22.66;69.05;100815.00;5115602;27;19908;-81
2022/09/10 04:44:39;;;;;;;;;;;;;;;22.57;69.67;100821.94;5134117;27;19918;-81
2022/09/10 04:47:05;;;;;;;;;;;;;;;22.62;69.94;100827.53;5133971;27;19907;-80
2022/09/10 04:49:30;;;;;;;;;;;;;;;22.82;69.46;100829.91;5134223;27;20285;-81
2022/09/10 04:51:55;;;;;;;;;;;;;;;22.80;68.88;100832.06;5115371;27;19911;-80
2022/09/10 04:54:21;;;;;;;;;;;;;;;22.83;69.39;100828.88;5134123;27;20023;-81
2022/09/10 04:56:46;;;;;;;;;;;;;;;22.78;69.28;100823.28;5133544;27;20323;-81
2022/09/10 04:59:11;;;;;;;;;;;;;;;22.88;68.33;100826.22;5133285;27;19919;-80
2022/09/10 05:01:37;;;;;;;;;;;;;;;22.87;68.50;100821.81;5133307;27;19972;-80
2022/09/10 05:04:02;;;;;;;;;;;;;;;22.96;68.58;100831.34;5097957;27;20363;-80
2022/09/10 05:06:28;;;;;;;;;;;;;;;23.16;68.03;100827.44;5133194;27;20002;-80
2022/09/10 05:08:54;;;;;;;;;;;;;;;23.09;67.81;100832.22;5133400;27;19915;-81
2022/09/10 05:11:20;;;;;;;;;;;;;;;23.22;67.33;100829.22;5133428;27;20343;-81
2022/09/10 05:13:45;;;;;;;;;;;;;;;23.12;67.82;100834.47;5133691;27;19911;-81
2022/09/10 05:16:11;;;;;;;;;;;;;;;23.06;67.67;100827.19;5133724;27;19911;-81
2022/09/10 05:18:36;;;;;;;;;;;;;;;23.18;67.29;100826.13;5134610;27;20003;-80
2022/09/10 05:21:04;;;;;;;;;;;;;;;23.17;67.30;100826.34;5132964;27;19912;-81
2022/09/10 05:23:29;;;;;;;;;;;;;;;23.23;67.30;100824.59;5132998;27;20351;-80
2022/09/10 05:25:55;;;;;;;;;;;;;;;23.38;67.21;100820.22;5114583;27;19918;-81
2022/09/10 05:28:21;;;;;;;;;;;;;;;23.51;66.75;100816.41;5132804;27;19934;-81
2022/09/10 05:30:46;;;;;;;;;;;;;;;23.60;66.66;100803.13;5132571;27;20363;-81
2022/09/10 05:33:12;;;;;;;;;;;;;;;24.13;64.91;100804.69;5133049;27;19923;-81
2022/09/10 05:35:37;;;;;;;;;;;;;;;24.63;62.75;100811.31;5132996;27;20010;-81
2022/09/10 05:38:02;;;;;;;;;;;;;;;24.61;63.07;100797.84;5114551;27;19964;-81
2022/09/10 05:40:28;;;;;;;;;;;;;;;24.89;62.27;100801.56;5132804;27;20309;-81
2022/09/10 05:42:53;;;;;;;;;;;;;;;25.13;60.92;100801.34;5132395;27;19911;-80
2022/09/10 05:45:19;;;;;;;;;;;;;;;25.25;61.09;100816.66;5132608;27;19915;-80
2022/09/10 05:47:45;;;;;;;;;;;;;;;25.42;60.35;100804.75;5133072;27;19911;-81
2022/09/10 05:50:10;;;;;;;;;;;;;;;25.69;59.22;100805.66;5132175;27;19972;-81
2022/09/10 05:52:36;;;;;;;;;;;;;;;25.86;58.91;100810.22;5114094;27;19916;-81
2022/09/10 05:55:01;;;;;;;;;;;;;;;25.90;58.46;100809.50;5132843;27;20362;-81
2022/09/10 05:57:26;;;;;;;;;;;;;;;25.96;58.59;100812.28;5132517;27;20009;-82
2022/09/10 05:59:52;;;;;;;;;;;;;;;26.51;56.76;100816.66;5132164;27;19915;-80
2022/09/10 06:02:17;;;;;;;;;;;;;;;26.68;55.37;100809.09;5132305;27;20002;-80
2022/09/10 06:04:42;;;;;;;;;;;;;;;26.83;55.07;100807.53;5132514;27;19915;-80
2022/09/10 06:07:08;;;;;;;;;;;;;;;26.81;54.90;100810.56;5113439;27;19911;-80
2022/09/10 06:09:33;;;;;;;;;;;;;;;27.06;53.57;100801.59;5131916;27;20244;-81
2022/09/10 06:11:58;;;;;;;;;;;;;;;27.24;53.11;100808.63;5132310;27;20274;-81
2022/09/10 06:14:24;;;;;;;;;;;;;;;27.27;53.42;100818.31;5113839;27;19912;-81
2022/09/10 06:16:50;;;;;;;;;;;;;;;26.90;54.63;100831.06;5131832;27;19915;-81
2022/09/10 06:19:16;;;;;;;;;;;;;;;26.92;54.18;100822.47;5132422;27;19911;-81
2022/09/10 06:21:41;;;;;;;;;;;;;;;26.95;54.09;100824.72;5131853;27;20023;-81
2022/09/10 06:24:06;;;;;;;;;;;;;;;27.04;53.28;100828.66;5132333;27;19915;-80
2022/09/10 06:26:31;;;;;;;;;;;;;;;27.22;52.98;100826.56;5134202;27;20267;-80
2022/09/10 06:28:57;;;;;;;;;;;;;;;27.67;51.89;100833.38;5134581;27;19922;-81
2022/09/10 06:31:22;;;;;;;;;;;;;;;27.34;52.93;100835.44;5135394;27;19930;-80
2022/09/10 06:33:47;;;;;;;;;;;;;;;27.55;52.44;100820.63;5135075;27;19911;-81
2022/09/10 06:36:13;;;;;;;;;;;;;;;27.56;53.22;100825.06;5132055;28;19922;-81
2022/09/10 06:38:38;;;;;;;;;;;;;;;27.17;53.42;100819.06;5132294;28;20378;-81
2022/09/10 06:41:04;;;;;;;;;;;;;;;26.98;53.94;100824.19;5097124;27;19919;-81
2022/09/10 06:43:35;;;;;;;;;;;;;;;27.27;53.25;100826.59;5136333;27;20423;-81
2022/09/10 06:46:00;;;;;;;;;;;;;;;27.29;53.71;100827.16;5136127;27;19915;-81
2022/09/10 06:48:29;;;;;;;;;;;;;;;27.12;53.84;100830.06;5117694;27;19914;-81
2022/09/10 06:50:55;;;;;;;;;;;;;;;26.88;54.53;100822.19;5135923;27;19968;-81
2022/09/10 06:53:21;;;;;;;;;;;;;;;27.25;53.92;100817.75;5135924;27;19951;-81
2022/09/10 06:55:47;;;;;;;;;;;;;;;27.45;53.02;100815.06;5117465;27;19973;-81
2022/09/10 06:58:12;;;;;;;;;;;;;;;27.15;53.20;100819.31;5135870;27;19916;-81
2022/09/10 07:00:38;;;;;;;;;;;;;;;27.39;53.27;100818.06;5135585;27;20413;-80
2022/09/10 07:03:03;;;;;;;;;;;;;;;27.46;52.82;100819.47;5135649;27;19918;-81
2022/09/10 07:05:31;;;;;;;;;;;;;;;27.89;51.20;100814.69;5135850;27;20056;-81
2022/09/10 07:07:56;;;;;;;;;;;;;;;28.09;50.12;100813.06;5135933;27;19912;-81
2022/09/10 07:10:22;;;;;;;;;;;;;;;27.90;50.84;100813.59;5135980;27;20006;-80
2022/09/10 07:12:47;;;;;;;;;;;;;;;27.58;51.82;100813.72;5137291;27;19928;-80
2022/09/10 07:15:12;;;;;;;;;;;;;;;27.53;52.49;100828.38;5117326;27;19907;-81
2022/09/10 07:17:38;;;;;;;;;;;;;;;27.73;51.46;100816.56;5135673;27;19933;-81
2022/09/10 07:20:03;;;;;;;;;;;;;;;27.82;51.56;100822.38;5135114;27;19964;-80
2022/09/10 07:22:28;;;;;;;;;;;;;;;28.67;49.86;100824.72;5135222;27;19912;-81
2022/09/10 07:24:54;;;;;;;;;;;;;;;28.61;49.47;100825.81;5135423;27;19911;-81
2022/09/10 07:27:20;;;;;;;;;;;;;;;28.46;49.67;100823.91;5117014;27;19915;-81
2022/09/10 07:29:45;;;;;;;;;;;;;;;28.41;50.04;100826.63;5135132;27;19918;-81
2022/09/10 07:32:11;;;;;;;;;;;;;;;29.21;47.65;100835.16;5116797;27;20013;-81
2022/09/10 07:34:37;;;;;;;;;;;;;;;29.63;46.99;100830.28;5116538;27;19919;-81
2022/09/10 07:37:02;;;;;;;;;;;;;;;29.56;46.35;100833.38;5134905;27;19978;-81
2022/09/10 07:39:27;;;;;;;;;;;;;;;29.51;45.79;100838.94;5135255;27;20383;-80
2022/09/10 07:41:52;;;;;;;;;;;;;;;29.92;45.79;100835.97;5145650;27;19950;-81
2022/09/10 07:44:18;;;;;;;;;;;;;;;30.43;45.17;100827.31;5146154;27;19946;-80
2022/09/10 07:46:45;;;;;;;;;;;;;;;29.67;46.87;100823.09;5138335;27;20013;-80
2022/09/10 07:49:10;;;;;;;;;;;;;;;29.45;47.38;100823.44;5134881;27;19915;-81
2022/09/10 07:51:35;;;;;;;;;;;;;;;29.63;46.93;100824.75;5116392;27;19912;-81
2022/09/10 07:54:01;;;;;;;;;;;;;;;30.04;45.02;100824.53;5134450;27;19926;-81
2022/09/10 07:56:27;;;;;;;;;;;;;;;30.46;44.21;100825.91;5134841;27;20332;-81
2022/09/10 07:58:52;;;;;;;;;;;;;;;30.44;44.37;100822.63;5134988;27;19938;-81
2022/09/10 08:01:18;;;;;;;;;;;;;;;31.20;42.94;100817.44;5134646;27;20355;-82
2022/09/10 08:03:43;;;;;;;;;;;;;;;32.02;40.75;100810.84;5134212;27;19911;-82
2022/09/10 08:06:09;;;;;;;;;;;;;;;31.54;42.00;100814.56;5134413;27;19980;-81
2022/09/10 08:08:35;;;;;;;;;;;;;;;31.87;41.35;100814.66;5134781;27;19934;-81
2022/09/10 08:11:07;;;;;;;;;;;;;;;31.99;41.01;100803.94;5134581;27;19915;-82
2022/09/10 08:13:33;;;;;;;;;;;;;;;32.62;39.96;100801.81;5134349;27;19918;-82
2022/09/10 08:15:59;;;;;;;;;;;;;;;33.94;37.12;100805.81;5134170;27;20022;-82
2022/09/10 08:18:24;;;;;;;;;;;;;;;34.07;36.21;100807.75;5134090;27;19994;-81
2022/09/10 08:20:53;;;;;;;;;;;;;;;34.81;35.58;100812.06;5134336;27;20291;-80
2022/09/10 08:23:19;;;;;;;;;;;;;;;34.70;34.96;100816.25;5134402;27;19922;-81
2022/09/10 08:25:50;;;;;;;;;;;;;;;34.88;35.42;100821.59;5134489;27;19915;-82
2022/09/10 08:28:17;;;;;;;;;;;;;;;35.02;34.94;100817.91;5115476;27;19920;-81
2022/09/10 08:30:42;;;;;;;;;;;;;;;35.07;34.42;100818.59;5133930;27;19911;-81
2022/09/10 08:33:08;;;;;;;;;;;;;;;34.85;34.97;100815.84;5133922;27;19998;-83
2022/09/10 08:35:33;;;;;;;;;;;;;;;35.64;33.57;100806.63;5133477;27;20383;-81
2022/09/10 08:37:58;;;;;;;;;;;;;;;36.22;33.27;100806.50;5133680;27;20379;-81
2022/09/10 08:40:23;;;;;;;;;;;;;;;36.32;32.47;100812.59;5134104;27;20344;-80
2022/09/10 08:42:49;;;;;;;;;;;;;;;35.63;33.68;100801.34;5133591;27;20002;-81
2022/09/10 08:45:27;;;;;;;;;;;;;;;35.85;33.17;100804.03;5115537;27;19976;-81
2022/09/10 08:47:57;;;;;;;;;;;;;;;35.38;33.77;100802.91;5133382;27;20014;-81
2022/09/10 08:50:25;;;;;;;;;;;;;;;35.05;34.78;100798.53;5133604;27;20006;-81
2022/09/10 08:52:52;;;;;;;;;;;;;;;36.23;32.87;100797.78;5097974;27;19915;-81
2022/09/10 08:55:20;;;;;;;;;;;;;;;37.40;30.54;100797.56;5114987;27;19911;-81
2022/09/10 08:57:56;;;;;;;;;;;;;;;37.55;30.14;100788.56;5134173;27;19918;-80
2022/09/10 09:00:23;;;;;;;;;;;;;;;37.33;30.54;100786.06;5133538;27;19959;-81
2022/09/10 09:02:52;;;;;;;;;;;;;;;37.66;30.57;100791.00;5133366;27;19967;-81
2022/09/10 09:05:19;;;;;;;;;;;;;;;38.08;29.90;100772.16;5132317;27;19976;-81
2022/09/10 09:07:44;;;;;;;;;;;;;;;38.76;29.16;100762.53;5133368;27;19911;-81
2022/09/10 09:10:24;;;;;;;;;;;;;;;38.52;29.10;100757.72;5133004;27;19938;-81
2022/09/10 09:12:50;;;;;;;;;;;;;;;39.15;28.53;100754.59;5133536;27;19960;-81
2022/09/10 09:15:17;;;;;;;;;;;;;;;38.91;28.65;100746.97;5133233;27;19919;-80
2022/09/10 09:17:48;;;;;;;;;;;;;;;39.40;28.06;100752.59;5133084;27;20359;-81
2022/09/10 09:20:17;;;;;;;;;;;;;;;40.34;26.53;100754.16;5132985;27;20383;-81
2022/09/10 09:22:52;;;;;;;;;;;;;;;40.92;26.07;100746.00;5133120;27;19912;-81
2022/09/10 09:25:20;;;;;;;;;;;;;;;42.34;24.03;100746.69;5132740;27;19919;-82
2022/09/10 09:27:45;;;;;;;;;;;;;;;41.53;24.62;100749.44;5133136;27;19930;-81
2022/09/10 09:30:18;;;;;;;;;;;;;;;38.29;28.54;100729.19;5114294;27;20306;-82
2022/09/10 09:32:43;;;;;;;;;;;;;;;39.00;28.29;100728.03;5114507;27;20014;-81
2022/09/10 09:35:23;;;;;;;;;;;;;;;39.38;27.75;100724.00;5133952;27;19907;-81
2022/09/10 09:37:55;;;;;;;;;;;;;;;39.85;27.13;100709.34;5115482;27;19911;-81
2022/09/10 09:40:20;;;;;;;;;;;;;;;39.35;27.94;100714.25;5097059;27;19915;-82
2022/09/10 09:42:54;;;;;;;;;;;;;;;39.65;27.18;100700.72;5114754;27;20306;-79
2022/09/10 09:45:19;;;;;;;;;;;;;;;37.72;30.05;100708.25;5132729;27;20480;-81
2022/09/10 09:47:45;;;;;;;;;;;;;;;36.38;32.38;100714.44;5114423;27;20020;-82
2022/09/10 09:50:11;;;;;;;;;;;;;;;36.84;31.97;100699.59;5132803;27;19918;-80
2022/09/10 09:52:37;;;;;;;;;;;;;;;36.02;32.80;100702.47;5133220;27;19911;-80
2022/09/10 09:55:03;;;;;;;;;;;;;;;37.74;30.77;100714.34;5132958;27;19911;-80
2022/09/10 09:57:29;;;;;;;;;;;;;;;38.04;29.91;100700.25;5114182;27;19930;-81
2022/09/10 09:59:54;;;;;;;;;;;;;;;37.76;30.50;100710.03;5113853;27;20390;-82
2022/09/10 10:02:23;;;;;;;;;;;;;;;37.91;29.91;100711.41;5132277;27;20370;-81
2022/09/10 10:04:55;;;;;;;;;;;;;;;37.09;30.99;100711.03;5113844;27;19915;-81
2022/09/10 10:07:24;;;;;;;;;;;;;;;36.30;32.20;100711.31;5114374;27;19919;-81
2022/09/10 10:09:51;;;;;;;;;;;;;;;36.11;32.49;100705.28;5113854;27;19998;-81
2022/09/10 10:12:19;;;;;;;;;;;;;;;37.02;31.10;100702.28;5113580;27;19911;-81
2022/09/10 10:14:45;;;;;;;;;;;;;;;37.35;30.96;100708.06;5113829;27;19912;-81
2022/09/10 10:17:20;;;;;;;;;;;;;;;37.50;30.73;100699.00;5131995;27;19922;-81
2022/09/10 10:19:50;;;;;;;;;;;;;;;37.87;30.22;100696.41;5113832;27;19919;-81
2022/09/10 10:22:16;;;;;;;;;;;;;;;37.77;30.22;100696.84;5113797;28;20013;-82
2022/09/10 10:24:41;;;;;;;;;;;;;;;38.68;28.74;100684.78;5131995;27;19973;-81
2022/09/10 10:27:31;;;;;;;;;;;;;;;38.26;28.89;100699.84;5131891;27;20318;-81
2022/09/10 10:30:00;;;;;;;;;;;;;;;37.74;29.65;100697.53;5119676;27;20009;-81
2022/09/10 10:32:32;;;;;;;;;;;;;;;37.33;31.00;100699.16;5113576;28;20371;-81
2022/09/10 10:35:18;;;;;;;;;;;;;;;36.21;32.71;100693.75;5131625;27;19918;-82
2022/09/10 10:38:02;;;;;;;;;;;;;;;33.43;37.46;100682.38;5131250;28;19923;-82
2022/09/10 10:40:35;;;;;;;;;;;;;;;34.23;36.78;100680.72;5132172;28;20363;-81
2022/09/10 10:43:19;;;;;;;;;;;;;;;35.87;33.50;100680.59;5113824;28;19916;-81
2022/09/10 10:45:54;;;;;;;;;;;;;;;34.87;34.39;100673.94;5131997;28;19915;-81
2022/09/10 10:48:22;;;;;;;;;;;;;;;33.80;36.84;100664.50;5131295;28;19911;-81
2022/09/10 10:50:58;;;;;;;;;;;;;;;33.79;37.14;100657.28;5131952;28;20054;-81
2022/09/10 10:53:39;;;;;;;;;;;;;;;33.75;36.94;100661.84;5112959;28;19944;-81
2022/09/10 10:56:17;;;;;;;;;;;;;;;34.65;35.57;100656.16;5131475;28;20009;-82
2022/09/10 10:58:48;;;;;;;;;;;;;;;35.21;34.87;100655.63;5113308;28;20437;-81
2022/09/10 11:01:23;;;;;;;;;;;;;;;35.28;33.89;100656.75;5113327;28;19954;-81
2022/09/10 11:03:55;;;;;;;;;;;;;;;35.32;34.19;100656.94;5131582;28;19966;-82
2022/09/10 11:06:23;;;;;;;;;;;;;;;35.89;33.77;100653.13;5132107;28;19922;-81
2022/09/10 11:08:52;;;;;;;;;;;;;;;35.12;34.35;100649.19;5114457;28;19916;-91
2022/09/10 11:11:36;;;;;;;;;;;;;;;34.71;34.98;100651.22;5131956;28;19918;-82
2022/09/10 11:14:20;;;;;;;;;;;;;;;34.10;36.19;100650.13;5131300;28;19929;-82
2022/09/10 11:16:48;;;;;;;;;;;;;;;33.94;36.66;100652.44;5131759;28;19915;-82
2022/09/10 11:19:24;;;;;;;;;;;;;;;34.04;36.67;100641.03;5132090;28;20378;-81
2022/09/10 11:21:50;;;;;;;;;;;;;;;31.79;40.88;100646.59;5132693;28;19984;-81
2022/09/10 11:24:17;;;;;;;;;;;;;;;32.12;40.85;100650.25;5131896;28;19950;-81
2022/09/10 11:26:46;;;;;;;;;;;;;;;31.51;42.09;100642.88;5132090;27;19954;-81
2022/09/10 11:29:21;;;;;;;;;;;;;;;31.06;43.38;100646.00;5135166;27;19958;-81
2022/09/10 11:31:50;;;;;;;;;;;;;;;30.87;43.72;100648.75;5135446;27;19919;-81
2022/09/10 11:34:17;;;;;;;;;;;;;;;31.13;43.42;100640.09;5117059;27;19945;-82
2022/09/10 11:36:48;;;;;;;;;;;;;;;32.06;41.31;100643.09;5116975;27;19911;-82
2022/09/10 11:39:16;;;;;;;;;;;;;;;31.86;41.95;100635.91;5116988;27;20313;-82
2022/09/10 11:41:41;;;;;;;;;;;;;;;31.04;43.67;100642.72;5116559;27;20367;-82
2022/09/10 11:44:16;;;;;;;;;;;;;;;30.61;44.28;100647.41;5116537;27;19915;-81
2022/09/10 11:47:03;;;;;;;;;;;;;;;30.87;43.76;100643.22;5134733;27;19914;-82
2022/09/10 11:49:49;;;;;;;;;;;;;;;31.21;43.31;100642.22;5116418;27;19912;-81
2022/09/10 11:52:14;;;;;;;;;;;;;;;30.62;44.39;100646.28;5134317;27;20031;-82
2022/09/10 11:54:39;;;;;;;;;;;;;;;31.05;44.06;100640.78;5135258;27;19915;-81
2022/09/10 11:57:05;;;;;;;;;;;;;;;30.31;45.37;100627.22;5134581;27;19952;-82
2022/09/10 11:59:41;;;;;;;;;;;;;;;30.84;44.30;100618.84;5134735;27;20232;-82
2022/09/10 12:02:45;;;;;;;;;;;;;;;30.55;44.68;100618.88;5134354;27;19912;-81
2022/09/10 12:05:17;;;;;;;;;;;;;;;30.56;44.36;100614.19;5031342;28;19920;-81
2022/09/10 12:07:43;;;;;;;;;;;;;;;29.58;47.06;100612.31;5031279;28;19917;-81
2022/09/10 12:10:08;;;;;;;;;;;;;;;29.72;46.53;100604.22;5083693;27;19924;-81
2022/09/10 12:12:33;;;;;;;;;;;;;;;29.63;47.09;100603.97;5134336;27;20027;-81
2022/09/10 12:14:59;;;;;;;;;;;;;;;29.40;47.87;100591.69;5134273;27;19911;-81
2022/09/10 12:17:28;;;;;;;;;;;;;;;28.99;48.93;100591.94;5134357;27;19907;-81
2022/09/10 12:19:54;;;;;;;;;;;;;;;28.85;48.96;100588.16;5115586;27;19911;-82
2022/09/10 12:22:40;;;;;;;;;;;;;;;28.34;50.87;100597.44;5115685;27;19938;-82
2022/09/10 12:25:26;;;;;;;;;;;;;;;28.52;50.03;100585.00;5134371;27;19988;-81
2022/09/10 12:27:57;;;;;;;;;;;;;;;28.59;50.10;100576.41;5133501;27;20013;-82
2022/09/10 12:30:29;;;;;;;;;;;;;;;29.02;49.40;100583.06;5116609;27;20086;-81
2022/09/10 12:32:58;;;;;;;;;;;;;;;28.59;50.55;100579.16;5133970;27;19922;-81
2022/09/10 12:35:29;;;;;;;;;;;;;;;28.90;49.41;100568.75;5134251;27;19918;-83
2022/09/10 12:38:14;;;;;;;;;;;;;;;28.87;49.25;100571.25;5137712;27;19934;-82
2022/09/10 12:40:43;;;;;;;;;;;;;;;29.05;49.20;100559.50;5138742;27;19920;-82